CDU9 weather

CLOSED Dunnville Airport
Dunnville, Ontario, Canada

Public forecast

Using degrees Celsius for public forecast. Weather courtesy of forecast.io.

Closest aviation weather report (METAR) to Dunnville Airport

Closest report is John C. Munro Hamilton International Airport, 23.4 nm (43.4 km) NW. Retrieved 2020/07/07 03:00 UTC (30 minutes ago):

CYHM 070300Z VRB02KT 15SM FEW250 21/19 A3002 RMK CI1 CI TR SLP163 DENSITY ALT 1600FT

Closest aviation forecast (TAF) to Dunnville Airport

Closest forecast is John C. Munro Hamilton International Airport, 23.4 nm (43.4 km) NW. Retrieved 2020-07-07 00:42 UTC (3 hours ago):

TAF CYHM 062338Z 0700/0724 05010KT P6SM FEW050 FEW250 BECMG 0702/0703 02005KT BECMG 0706/0708 31005KT FM071700 22010KT P6SM SCT080 RMK NXT FCST BY 070600Z